Česky Dansk Deutsch English Español Suomi Français Magyar Italiano Nederlands norsk Polski Português svenska Türkçe

 

Het Weer

Bage Aeroporto (Brazilië)

21:45, 29 juli 2016 (GMT)

NWNNE
WE
SWSSE
Home            
Bage Aeroporto Melo Rivera Pelotas Tacuarembo Santa Maria Aero-Porto Treinta Y Tres Artigas Porto Alegre Durazno Porto Alegre Aero-Porto Uruguaiana Aeroporto Paso De Los Libres Aerodrome Monte Caseros Aerodrome Salto Concordia Aerodrome Passo Fundo Paysandu Capitan Corbeta Maldonado / Punta Est Curuzu Cuatia Aerodrome Carrasco Mercedes

Om een weerknop op uw website of weblog te plaatsen, copieer onderstaande code en plak die in uw pagina. In het eerste vakje staat HTML-code, in het tweede vakje UBB-code.


Add to Google

Details

Wind speed:2 bf, 6 kn, 3.1 m/s, 6.9 miles/h, 11.1 km/h
Wind direction:E, 080°
Visibility:Greater than 10000 m, 10 km, 32800 ft, 6.2 miles
Clouds:CAVOC
Temperature:10°C, 50°F
Dew-point:8°C, 46°F
Atmospheric pressure:1021 hPa, 765.8 mmHg, 30.15 inHg, 1.008 atm
Relative humidity:87.4 %
METAR:SBBG 292145Z 08006KT CAVOK 10/08 Q1021

Snelkoppelingen

Actuele weersinformatie van de hele wereld. Voeg locaties toe met het plus (+) symbool. Deze snelkoppelingen kunnen worden toegevoegd aan Google.

Lid van de Technetium groep

website free tracking
StatCounter NetStat W3C Validator

02-10-2022 11:15:17
astro.technetium.be money.technetium.be phote.technetium.be tafeltennistafel.technetium.be www.ligfiets.net